sensor_id;sensor_type;location;lat;lon;timestamp;temperature;humidity
40257;DHT22;25977;45.462;9.210;2023-07-13T00:00:29;24.90;84.30
40257;DHT22;25977;45.462;9.210;2023-07-13T00:02:56;24.90;84.40
40257;DHT22;25977;45.462;9.210;2023-07-13T00:05:22;24.90;84.30
40257;DHT22;25977;45.462;9.210;2023-07-13T00:07:49;24.90;84.20
40257;DHT22;25977;45.462;9.210;2023-07-13T00:10:15;24.90;84.60
40257;DHT22;25977;45.462;9.210;2023-07-13T00:12:41;24.90;84.80
40257;DHT22;25977;45.462;9.210;2023-07-13T00:15:13;25.00;85.20
40257;DHT22;25977;45.462;9.210;2023-07-13T00:17:39;25.00;84.40
40257;DHT22;25977;45.462;9.210;2023-07-13T00:20:05;25.10;84.10
40257;DHT22;25977;45.462;9.210;2023-07-13T00:22:32;25.20;84.10
40257;DHT22;25977;45.462;9.210;2023-07-13T00:24:58;25.10;83.80
40257;DHT22;25977;45.462;9.210;2023-07-13T00:27:24;25.20;84.20
40257;DHT22;25977;45.462;9.210;2023-07-13T00:29:52;25.20;84.10
40257;DHT22;25977;45.462;9.210;2023-07-13T00:32:18;25.20;83.90
40257;DHT22;25977;45.462;9.210;2023-07-13T00:34:44;25.20;83.90
40257;DHT22;25977;45.462;9.210;2023-07-13T00:37:11;25.30;84.00
40257;DHT22;25977;45.462;9.210;2023-07-13T00:39:37;25.30;83.80
40257;DHT22;25977;45.462;9.210;2023-07-13T00:42:03;25.30;83.70
40257;DHT22;25977;45.462;9.210;2023-07-13T00:44:30;25.40;83.90
40257;DHT22;25977;45.462;9.210;2023-07-13T00:46:56;25.40;83.80
40257;DHT22;25977;45.462;9.210;2023-07-13T00:49:25;25.40;83.70
40257;DHT22;25977;45.462;9.210;2023-07-13T00:51:58;25.40;84.00
40257;DHT22;25977;45.462;9.210;2023-07-13T00:54:33;25.40;84.40
40257;DHT22;25977;45.462;9.210;2023-07-13T00:57:02;25.40;84.00
40257;DHT22;25977;45.462;9.210;2023-07-13T00:59:29;25.40;83.90
40257;DHT22;25977;45.462;9.210;2023-07-13T01:01:56;25.40;83.70
40257;DHT22;25977;45.462;9.210;2023-07-13T01:04:24;25.40;83.60
40257;DHT22;25977;45.462;9.210;2023-07-13T01:06:50;25.40;83.70
40257;DHT22;25977;45.462;9.210;2023-07-13T01:09:17;25.40;83.90
40257;DHT22;25977;45.462;9.210;2023-07-13T01:11:43;25.40;84.10
40257;DHT22;25977;45.462;9.210;2023-07-13T01:14:10;25.50;84.20
40257;DHT22;25977;45.462;9.210;2023-07-13T01:16:37;25.50;83.60
40257;DHT22;25977;45.462;9.210;2023-07-13T01:19:28;25.50;83.50
40257;DHT22;25977;45.462;9.210;2023-07-13T01:22:10;25.50;83.70
40257;DHT22;25977;45.462;9.210;2023-07-13T01:24:40;25.50;83.70
40257;DHT22;25977;45.462;9.210;2023-07-13T01:27:07;25.60;83.80
40257;DHT22;25977;45.462;9.210;2023-07-13T01:29:34;25.60;83.70
40257;DHT22;25977;45.462;9.210;2023-07-13T01:32:00;25.60;83.40
40257;DHT22;25977;45.462;9.210;2023-07-13T01:34:27;25.50;83.40
40257;DHT22;25977;45.462;9.210;2023-07-13T01:36:53;25.60;83.90
40257;DHT22;25977;45.462;9.210;2023-07-13T01:39:22;25.60;84.10
40257;DHT22;25977;45.462;9.210;2023-07-13T01:41:48;25.50;84.10
40257;DHT22;25977;45.462;9.210;2023-07-13T01:44:14;25.50;84.00
40257;DHT22;25977;45.462;9.210;2023-07-13T01:46:40;25.50;84.20
40257;DHT22;25977;45.462;9.210;2023-07-13T01:49:05;25.50;84.20
40257;DHT22;25977;45.462;9.210;2023-07-13T01:51:31;25.50;84.40
40257;DHT22;25977;45.462;9.210;2023-07-13T01:53:57;25.50;84.90
40257;DHT22;25977;45.462;9.210;2023-07-13T01:56:23;25.40;85.30
40257;DHT22;25977;45.462;9.210;2023-07-13T01:58:48;25.50;85.40
40257;DHT22;25977;45.462;9.210;2023-07-13T02:01:14;25.50;85.10
40257;DHT22;25977;45.462;9.210;2023-07-13T02:03:40;25.50;85.20
40257;DHT22;25977;45.462;9.210;2023-07-13T02:06:06;25.40;85.40
40257;DHT22;25977;45.462;9.210;2023-07-13T02:08:33;25.40;85.60
40257;DHT22;25977;45.462;9.210;2023-07-13T02:10:59;25.40;85.70
40257;DHT22;25977;45.462;9.210;2023-07-13T02:13:25;25.40;85.80
40257;DHT22;25977;45.462;9.210;2023-07-13T02:15:52;25.40;85.90
40257;DHT22;25977;45.462;9.210;2023-07-13T02:18:18;25.30;86.10
40257;DHT22;25977;45.462;9.210;2023-07-13T02:20:44;25.40;86.20
40257;DHT22;25977;45.462;9.210;2023-07-13T02:23:11;25.40;85.60
40257;DHT22;25977;45.462;9.210;2023-07-13T02:25:36;25.50;85.50
40257;DHT22;25977;45.462;9.210;2023-07-13T02:28:02;25.50;85.20
40257;DHT22;25977;45.462;9.210;2023-07-13T02:30:30;25.50;84.30
40257;DHT22;25977;45.462;9.210;2023-07-13T02:32:56;25.60;83.80
40257;DHT22;25977;45.462;9.210;2023-07-13T02:35:22;25.60;83.60
40257;DHT22;25977;45.462;9.210;2023-07-13T02:37:48;25.60;83.50
40257;DHT22;25977;45.462;9.210;2023-07-13T02:40:14;25.60;83.40
40257;DHT22;25977;45.462;9.210;2023-07-13T02:42:40;25.60;83.60
40257;DHT22;25977;45.462;9.210;2023-07-13T02:45:07;25.60;83.80
40257;DHT22;25977;45.462;9.210;2023-07-13T02:47:34;25.60;84.00
40257;DHT22;25977;45.462;9.210;2023-07-13T02:49:59;25.60;83.80
40257;DHT22;25977;45.462;9.210;2023-07-13T02:52:25;25.60;83.70
40257;DHT22;25977;45.462;9.210;2023-07-13T02:54:51;25.60;83.80
40257;DHT22;25977;45.462;9.210;2023-07-13T02:57:16;25.60;83.90
40257;DHT22;25977;45.462;9.210;2023-07-13T02:59:42;25.60;83.90
40257;DHT22;25977;45.462;9.210;2023-07-13T03:02:08;25.60;83.90
40257;DHT22;25977;45.462;9.210;2023-07-13T03:04:36;25.60;83.90
40257;DHT22;25977;45.462;9.210;2023-07-13T03:07:03;25.60;83.80
40257;DHT22;25977;45.462;9.210;2023-07-13T03:09:35;25.60;83.50
40257;DHT22;25977;45.462;9.210;2023-07-13T03:12:03;25.60;83.40
40257;DHT22;25977;45.462;9.210;2023-07-13T03:14:31;25.60;83.40
40257;DHT22;25977;45.462;9.210;2023-07-13T03:16:58;25.70;83.30
40257;DHT22;25977;45.462;9.210;2023-07-13T03:19:28;25.60;83.00
40257;DHT22;25977;45.462;9.210;2023-07-13T03:21:54;25.60;83.10
40257;DHT22;25977;45.462;9.210;2023-07-13T03:24:21;25.70;83.40
40257;DHT22;25977;45.462;9.210;2023-07-13T03:26:49;25.70;83.30
40257;DHT22;25977;45.462;9.210;2023-07-13T03:29:15;25.70;82.80
40257;DHT22;25977;45.462;9.210;2023-07-13T03:31:42;25.70;82.40
40257;DHT22;25977;45.462;9.210;2023-07-13T03:34:08;25.60;82.50
40257;DHT22;25977;45.462;9.210;2023-07-13T03:36:35;25.60;82.70
40257;DHT22;25977;45.462;9.210;2023-07-13T03:39:04;25.60;83.10
40257;DHT22;25977;45.462;9.210;2023-07-13T03:41:55;25.60;82.40
40257;DHT22;25977;45.462;9.210;2023-07-13T03:44:21;25.70;82.60
40257;DHT22;25977;45.462;9.210;2023-07-13T03:46:51;25.60;85.00
40257;DHT22;25977;45.462;9.210;2023-07-13T03:49:17;25.50;86.50
40257;DHT22;25977;45.462;9.210;2023-07-13T03:51:43;25.50;87.10
40257;DHT22;25977;45.462;9.210;2023-07-13T03:54:09;25.40;87.60
40257;DHT22;25977;45.462;9.210;2023-07-13T03:56:35;25.50;87.60
40257;DHT22;25977;45.462;9.210;2023-07-13T03:59:03;25.50;87.60
40257;DHT22;25977;45.462;9.210;2023-07-13T04:01:29;25.40;87.70
40257;DHT22;25977;45.462;9.210;2023-07-13T04:03:55;25.40;87.50
40257;DHT22;25977;45.462;9.210;2023-07-13T04:06:26;25.10;87.90
40257;DHT22;25977;45.462;9.210;2023-07-13T04:08:55;25.20;88.20
40257;DHT22;25977;45.462;9.210;2023-07-13T04:11:24;25.10;88.40
40257;DHT22;25977;45.462;9.210;2023-07-13T04:13:50;25.10;88.40
40257;DHT22;25977;45.462;9.210;2023-07-13T04:16:17;25.20;88.70
40257;DHT22;25977;45.462;9.210;2023-07-13T04:18:44;25.00;88.70
40257;DHT22;25977;45.462;9.210;2023-07-13T04:21:10;25.00;88.80
40257;DHT22;25977;45.462;9.210;2023-07-13T04:23:36;24.90;89.20
40257;DHT22;25977;45.462;9.210;2023-07-13T04:26:02;24.90;89.20
40257;DHT22;25977;45.462;9.210;2023-07-13T04:28:29;25.00;89.20
40257;DHT22;25977;45.462;9.210;2023-07-13T04:30:54;25.10;89.10
40257;DHT22;25977;45.462;9.210;2023-07-13T04:33:20;25.20;88.90
40257;DHT22;25977;45.462;9.210;2023-07-13T04:35:50;25.20;89.30
40257;DHT22;25977;45.462;9.210;2023-07-13T04:38:20;25.30;88.80
40257;DHT22;25977;45.462;9.210;2023-07-13T04:40:46;25.30;88.60
40257;DHT22;25977;45.462;9.210;2023-07-13T04:43:12;25.20;88.80
40257;DHT22;25977;45.462;9.210;2023-07-13T04:45:38;25.20;88.80
40257;DHT22;25977;45.462;9.210;2023-07-13T04:48:04;25.20;88.80
40257;DHT22;25977;45.462;9.210;2023-07-13T04:50:30;25.20;88.80
40257;DHT22;25977;45.462;9.210;2023-07-13T04:52:55;25.20;88.70
40257;DHT22;25977;45.462;9.210;2023-07-13T04:55:21;25.20;88.80
40257;DHT22;25977;45.462;9.210;2023-07-13T04:57:47;25.30;88.90
40257;DHT22;25977;45.462;9.210;2023-07-13T05:00:13;25.20;89.00
40257;DHT22;25977;45.462;9.210;2023-07-13T05:02:44;25.20;89.20
40257;DHT22;25977;45.462;9.210;2023-07-13T05:05:09;25.20;89.30
40257;DHT22;25977;45.462;9.210;2023-07-13T05:07:35;25.30;89.20
40257;DHT22;25977;45.462;9.210;2023-07-13T05:10:02;25.30;89.00
40257;DHT22;25977;45.462;9.210;2023-07-13T05:12:28;25.40;88.70
40257;DHT22;25977;45.462;9.210;2023-07-13T05:14:54;25.40;88.40
40257;DHT22;25977;45.462;9.210;2023-07-13T05:17:19;25.50;88.30
40257;DHT22;25977;45.462;9.210;2023-07-13T05:19:45;25.50;88.20
40257;DHT22;25977;45.462;9.210;2023-07-13T05:22:11;25.60;88.10
40257;DHT22;25977;45.462;9.210;2023-07-13T05:24:36;25.60;87.90
40257;DHT22;25977;45.462;9.210;2023-07-13T05:27:02;25.60;86.90
40257;DHT22;25977;45.462;9.210;2023-07-13T05:29:28;25.70;86.70
40257;DHT22;25977;45.462;9.210;2023-07-13T05:31:54;25.80;86.50
40257;DHT22;25977;45.462;9.210;2023-07-13T05:34:19;25.90;85.90
40257;DHT22;25977;45.462;9.210;2023-07-13T05:36:45;25.90;85.90
40257;DHT22;25977;45.462;9.210;2023-07-13T05:39:11;25.90;85.20
40257;DHT22;25977;45.462;9.210;2023-07-13T05:41:37;26.10;85.40
40257;DHT22;25977;45.462;9.210;2023-07-13T05:44:03;26.70;84.90
40257;DHT22;25977;45.462;9.210;2023-07-13T05:46:28;27.10;82.40
40257;DHT22;25977;45.462;9.210;2023-07-13T05:48:54;27.20;81.40
40257;DHT22;25977;45.462;9.210;2023-07-13T05:51:20;27.30;80.90
40257;DHT22;25977;45.462;9.210;2023-07-13T05:53:45;27.00;79.50
40257;DHT22;25977;45.462;9.210;2023-07-13T05:56:11;27.00;80.30
40257;DHT22;25977;45.462;9.210;2023-07-13T05:58:37;26.80;80.30
40257;DHT22;25977;45.462;9.210;2023-07-13T06:01:10;26.80;80.70
40257;DHT22;25977;45.462;9.210;2023-07-13T06:03:36;27.00;81.00
40257;DHT22;25977;45.462;9.210;2023-07-13T06:06:04;27.40;79.50
40257;DHT22;25977;45.462;9.210;2023-07-13T06:08:31;27.90;77.20
40257;DHT22;25977;45.462;9.210;2023-07-13T06:11:14;28.80;75.70
40257;DHT22;25977;45.462;9.210;2023-07-13T06:13:40;29.70;73.90
40257;DHT22;25977;45.462;9.210;2023-07-13T06:16:07;29.90;72.60
40257;DHT22;25977;45.462;9.210;2023-07-13T06:18:35;29.60;72.60
40257;DHT22;25977;45.462;9.210;2023-07-13T06:21:06;29.60;73.10
40257;DHT22;25977;45.462;9.210;2023-07-13T06:23:32;30.30;72.40
40257;DHT22;25977;45.462;9.210;2023-07-13T06:25:57;31.30;70.10
40257;DHT22;25977;45.462;9.210;2023-07-13T06:28:23;32.10;69.40
40257;DHT22;25977;45.462;9.210;2023-07-13T06:30:48;32.90;68.00
40257;DHT22;25977;45.462;9.210;2023-07-13T06:33:14;33.10;66.50
40257;DHT22;25977;45.462;9.210;2023-07-13T06:35:40;33.30;66.00
40257;DHT22;25977;45.462;9.210;2023-07-13T06:38:05;33.80;65.00
40257;DHT22;25977;45.462;9.210;2023-07-13T06:40:31;33.40;65.20
40257;DHT22;25977;45.462;9.210;2023-07-13T06:42:57;33.20;65.40
40257;DHT22;25977;45.462;9.210;2023-07-13T06:45:23;32.80;65.90
40257;DHT22;25977;45.462;9.210;2023-07-13T06:47:48;32.40;66.10
40257;DHT22;25977;45.462;9.210;2023-07-13T06:50:15;32.30;66.50
40257;DHT22;25977;45.462;9.210;2023-07-13T06:52:41;31.90;66.60
40257;DHT22;25977;45.462;9.210;2023-07-13T06:55:06;31.50;67.20
40257;DHT22;25977;45.462;9.210;2023-07-13T06:57:32;31.30;67.80
40257;DHT22;25977;45.462;9.210;2023-07-13T06:59:58;31.20;68.30
40257;DHT22;25977;45.462;9.210;2023-07-13T07:02:23;31.00;69.20
40257;DHT22;25977;45.462;9.210;2023-07-13T07:04:49;30.90;69.40
40257;DHT22;25977;45.462;9.210;2023-07-13T07:07:15;30.50;69.40
40257;DHT22;25977;45.462;9.210;2023-07-13T07:09:41;30.30;69.80
40257;DHT22;25977;45.462;9.210;2023-07-13T07:12:07;30.00;69.90
40257;DHT22;25977;45.462;9.210;2023-07-13T07:14:33;30.00;70.10
40257;DHT22;25977;45.462;9.210;2023-07-13T07:17:00;29.90;70.80
40257;DHT22;25977;45.462;9.210;2023-07-13T07:19:25;29.80;70.30
40257;DHT22;25977;45.462;9.210;2023-07-13T07:21:51;29.60;70.80
40257;DHT22;25977;45.462;9.210;2023-07-13T07:24:17;29.40;71.50
40257;DHT22;25977;45.462;9.210;2023-07-13T07:26:42;29.40;72.00
40257;DHT22;25977;45.462;9.210;2023-07-13T07:29:09;29.30;72.20
40257;DHT22;25977;45.462;9.210;2023-07-13T07:31:34;29.20;72.70
40257;DHT22;25977;45.462;9.210;2023-07-13T07:34:02;29.00;72.10
40257;DHT22;25977;45.462;9.210;2023-07-13T07:36:28;28.90;72.60
40257;DHT22;25977;45.462;9.210;2023-07-13T07:38:54;28.80;72.70
40257;DHT22;25977;45.462;9.210;2023-07-13T07:41:19;28.60;73.10
40257;DHT22;25977;45.462;9.210;2023-07-13T07:43:45;28.20;73.60
40257;DHT22;25977;45.462;9.210;2023-07-13T07:46:11;28.10;74.00
40257;DHT22;25977;45.462;9.210;2023-07-13T07:48:36;28.10;74.00
40257;DHT22;25977;45.462;9.210;2023-07-13T07:51:02;28.20;74.30
40257;DHT22;25977;45.462;9.210;2023-07-13T07:53:28;28.20;74.10
40257;DHT22;25977;45.462;9.210;2023-07-13T07:55:53;28.20;74.40
40257;DHT22;25977;45.462;9.210;2023-07-13T07:58:19;28.10;74.80
40257;DHT22;25977;45.462;9.210;2023-07-13T08:00:45;28.10;74.50
40257;DHT22;25977;45.462;9.210;2023-07-13T08:03:10;28.10;74.80
40257;DHT22;25977;45.462;9.210;2023-07-13T08:05:36;28.00;74.50
40257;DHT22;25977;45.462;9.210;2023-07-13T08:08:02;28.00;74.40
40257;DHT22;25977;45.462;9.210;2023-07-13T08:10:28;27.80;74.50
40257;DHT22;25977;45.462;9.210;2023-07-13T08:12:54;27.50;75.30
40257;DHT22;25977;45.462;9.210;2023-07-13T08:15:20;27.50;75.70
40257;DHT22;25977;45.462;9.210;2023-07-13T08:17:47;27.70;75.60
40257;DHT22;25977;45.462;9.210;2023-07-13T08:20:13;27.90;75.40
40257;DHT22;25977;45.462;9.210;2023-07-13T08:22:39;27.90;75.50
40257;DHT22;25977;45.462;9.210;2023-07-13T08:25:05;28.10;75.90
40257;DHT22;25977;45.462;9.210;2023-07-13T08:27:32;28.20;76.00
40257;DHT22;25977;45.462;9.210;2023-07-13T08:29:58;28.30;76.20
40257;DHT22;25977;45.462;9.210;2023-07-13T08:32:24;28.50;76.60
40257;DHT22;25977;45.462;9.210;2023-07-13T08:34:50;28.60;76.70
40257;DHT22;25977;45.462;9.210;2023-07-13T08:37:17;28.60;75.60
40257;DHT22;25977;45.462;9.210;2023-07-13T08:39:43;28.90;74.20
40257;DHT22;25977;45.462;9.210;2023-07-13T08:42:13;29.00;73.50
40257;DHT22;25977;45.462;9.210;2023-07-13T08:44:57;29.20;72.00
40257;DHT22;25977;45.462;9.210;2023-07-13T08:47:26;29.30;70.90
40257;DHT22;25977;45.462;9.210;2023-07-13T08:49:53;29.30;70.30
40257;DHT22;25977;45.462;9.210;2023-07-13T08:52:36;29.40;69.50
40257;DHT22;25977;45.462;9.210;2023-07-13T08:55:13;29.50;68.70
40257;DHT22;25977;45.462;9.210;2023-07-13T08:57:41;29.60;69.30
40257;DHT22;25977;45.462;9.210;2023-07-13T09:00:12;29.60;69.40
40257;DHT22;25977;45.462;9.210;2023-07-13T09:02:52;29.70;70.40
40257;DHT22;25977;45.462;9.210;2023-07-13T09:05:40;29.70;70.70
40257;DHT22;25977;45.462;9.210;2023-07-13T09:11:23;29.40;71.30
40257;DHT22;25977;45.462;9.210;2023-07-13T09:16:56;29.50;70.90
40257;DHT22;25977;45.462;9.210;2023-07-13T09:19:27;29.40;70.90
40257;DHT22;25977;45.462;9.210;2023-07-13T09:21:54;29.50;70.80
40257;DHT22;25977;45.462;9.210;2023-07-13T09:26:55;29.10;72.40
40257;DHT22;25977;45.462;9.210;2023-07-13T09:29:27;29.00;72.70
40257;DHT22;25977;45.462;9.210;2023-07-13T09:31:57;28.90;73.30
40257;DHT22;25977;45.462;9.210;2023-07-13T09:34:25;28.60;73.70
40257;DHT22;25977;45.462;9.210;2023-07-13T09:36:51;28.70;74.30
40257;DHT22;25977;45.462;9.210;2023-07-13T09:42:07;28.90;73.50
40257;DHT22;25977;45.462;9.210;2023-07-13T09:44:51;28.60;73.80
40257;DHT22;25977;45.462;9.210;2023-07-13T09:47:21;28.60;74.00
40257;DHT22;25977;45.462;9.210;2023-07-13T09:49:56;28.90;73.30
40257;DHT22;25977;45.462;9.210;2023-07-13T09:52:22;29.10;73.60
40257;DHT22;25977;45.462;9.210;2023-07-13T09:54:49;29.20;73.10
40257;DHT22;25977;45.462;9.210;2023-07-13T09:57:18;29.30;72.80
40257;DHT22;25977;45.462;9.210;2023-07-13T09:59:47;29.30;73.30
40257;DHT22;25977;45.462;9.210;2023-07-13T10:02:34;29.30;73.50
40257;DHT22;25977;45.462;9.210;2023-07-13T10:05:06;29.60;73.00
40257;DHT22;25977;45.462;9.210;2023-07-13T10:07:38;29.70;72.00
40257;DHT22;25977;45.462;9.210;2023-07-13T10:10:12;29.80;70.80
40257;DHT22;25977;45.462;9.210;2023-07-13T10:12:38;29.80;71.40
40257;DHT22;25977;45.462;9.210;2023-07-13T10:15:09;29.80;71.40
40257;DHT22;25977;45.462;9.210;2023-07-13T10:17:39;29.80;69.80
40257;DHT22;25977;45.462;9.210;2023-07-13T10:20:06;29.50;70.20
40257;DHT22;25977;45.462;9.210;2023-07-13T10:25:23;29.70;70.60
40257;DHT22;25977;45.462;9.210;2023-07-13T10:28:03;29.80;70.30
40257;DHT22;25977;45.462;9.210;2023-07-13T10:30:34;29.60;70.80
40257;DHT22;25977;45.462;9.210;2023-07-13T10:33:10;29.60;71.00
40257;DHT22;25977;45.462;9.210;2023-07-13T10:35:37;29.60;70.80
40257;DHT22;25977;45.462;9.210;2023-07-13T10:38:10;29.80;70.60
40257;DHT22;25977;45.462;9.210;2023-07-13T10:41:05;29.80;70.40
40257;DHT22;25977;45.462;9.210;2023-07-13T10:43:44;29.80;70.50
40257;DHT22;25977;45.462;9.210;2023-07-13T10:46:14;29.90;70.50
40257;DHT22;25977;45.462;9.210;2023-07-13T10:48:42;29.80;70.70
40257;DHT22;25977;45.462;9.210;2023-07-13T10:51:10;29.90;70.50
40257;DHT22;25977;45.462;9.210;2023-07-13T10:53:38;30.00;70.40
40257;DHT22;25977;45.462;9.210;2023-07-13T10:56:24;30.10;70.60
40257;DHT22;25977;45.462;9.210;2023-07-13T10:59:23;30.00;70.50
40257;DHT22;25977;45.462;9.210;2023-07-13T11:04:20;29.60;71.10
40257;DHT22;25977;45.462;9.210;2023-07-13T11:06:48;29.70;71.00
40257;DHT22;25977;45.462;9.210;2023-07-13T11:09:35;29.70;70.80
40257;DHT22;25977;45.462;9.210;2023-07-13T11:17:46;30.00;70.60
40257;DHT22;25977;45.462;9.210;2023-07-13T11:25:36;30.20;70.30
40257;DHT22;25977;45.462;9.210;2023-07-13T11:33:19;30.30;70.20
40257;DHT22;25977;45.462;9.210;2023-07-13T11:36:02;30.30;70.20
40257;DHT22;25977;45.462;9.210;2023-07-13T11:38:41;30.30;70.50
40257;DHT22;25977;45.462;9.210;2023-07-13T11:41:22;30.40;69.70
40257;DHT22;25977;45.462;9.210;2023-07-13T11:44:01;30.50;69.40
40257;DHT22;25977;45.462;9.210;2023-07-13T11:46:28;30.50;69.80
40257;DHT22;25977;45.462;9.210;2023-07-13T11:48:54;30.60;69.90
40257;DHT22;25977;45.462;9.210;2023-07-13T11:51:27;30.70;70.00
40257;DHT22;25977;45.462;9.210;2023-07-13T11:53:55;30.70;69.70
40257;DHT22;25977;45.462;9.210;2023-07-13T11:56:23;30.70;69.10
40257;DHT22;25977;45.462;9.210;2023-07-13T11:58:54;30.70;69.50
40257;DHT22;25977;45.462;9.210;2023-07-13T12:01:23;30.70;70.40
40257;DHT22;25977;45.462;9.210;2023-07-13T12:03:50;30.80;70.50
40257;DHT22;25977;45.462;9.210;2023-07-13T12:06:35;30.80;70.40
40257;DHT22;25977;45.462;9.210;2023-07-13T12:09:13;30.70;70.90
40257;DHT22;25977;45.462;9.210;2023-07-13T12:11:42;30.70;70.70
40257;DHT22;25977;45.462;9.210;2023-07-13T12:14:26;30.60;70.60
40257;DHT22;25977;45.462;9.210;2023-07-13T12:16:52;30.60;70.20
40257;DHT22;25977;45.462;9.210;2023-07-13T12:19:36;30.70;69.90
40257;DHT22;25977;45.462;9.210;2023-07-13T12:22:02;30.70;69.20
40257;DHT22;25977;45.462;9.210;2023-07-13T12:24:28;30.90;69.00
40257;DHT22;25977;45.462;9.210;2023-07-13T12:26:55;30.90;68.40
40257;DHT22;25977;45.462;9.210;2023-07-13T12:29:21;30.80;68.40
40257;DHT22;25977;45.462;9.210;2023-07-13T12:31:49;30.90;68.50
40257;DHT22;25977;45.462;9.210;2023-07-13T12:34:20;30.80;68.30
40257;DHT22;25977;45.462;9.210;2023-07-13T12:37:00;30.70;68.40
40257;DHT22;25977;45.462;9.210;2023-07-13T12:39:38;30.70;68.90
40257;DHT22;25977;45.462;9.210;2023-07-13T12:44:46;30.90;69.20
40257;DHT22;25977;45.462;9.210;2023-07-13T12:47:14;30.80;69.50
40257;DHT22;25977;45.462;9.210;2023-07-13T12:49:44;30.80;69.80
40257;DHT22;25977;45.462;9.210;2023-07-13T12:52:33;30.90;69.90
40257;DHT22;25977;45.462;9.210;2023-07-13T12:55:04;31.00;70.00
40257;DHT22;25977;45.462;9.210;2023-07-13T12:57:30;30.90;70.30
40257;DHT22;25977;45.462;9.210;2023-07-13T12:59:56;30.90;70.50
40257;DHT22;25977;45.462;9.210;2023-07-13T13:02:31;30.90;70.10
40257;DHT22;25977;45.462;9.210;2023-07-13T13:04:58;31.00;69.70
40257;DHT22;25977;45.462;9.210;2023-07-13T13:07:25;31.10;69.60
40257;DHT22;25977;45.462;9.210;2023-07-13T13:09:51;31.10;69.50
40257;DHT22;25977;45.462;9.210;2023-07-13T13:12:19;31.20;69.40
40257;DHT22;25977;45.462;9.210;2023-07-13T13:14:45;31.20;69.40
40257;DHT22;25977;45.462;9.210;2023-07-13T13:17:23;31.30;69.60
40257;DHT22;25977;45.462;9.210;2023-07-13T13:19:50;31.30;69.40
40257;DHT22;25977;45.462;9.210;2023-07-13T13:22:19;31.20;69.20
40257;DHT22;25977;45.462;9.210;2023-07-13T13:24:45;31.40;69.30
40257;DHT22;25977;45.462;9.210;2023-07-13T13:27:17;31.50;69.20
40257;DHT22;25977;45.462;9.210;2023-07-13T13:29:44;31.50;69.20
40257;DHT22;25977;45.462;9.210;2023-07-13T13:32:14;31.60;69.10
40257;DHT22;25977;45.462;9.210;2023-07-13T13:34:41;31.70;69.20
40257;DHT22;25977;45.462;9.210;2023-07-13T13:37:25;31.80;69.20
40257;DHT22;25977;45.462;9.210;2023-07-13T13:39:51;31.70;69.20
40257;DHT22;25977;45.462;9.210;2023-07-13T13:42:19;31.80;68.90
40257;DHT22;25977;45.462;9.210;2023-07-13T13:44:46;31.70;68.90
40257;DHT22;25977;45.462;9.210;2023-07-13T13:47:39;31.80;69.10
40257;DHT22;25977;45.462;9.210;2023-07-13T13:52:40;31.90;69.10
40257;DHT22;25977;45.462;9.210;2023-07-13T14:12:09;31.40;69.30
40257;DHT22;25977;45.462;9.210;2023-07-13T14:14:38;31.50;69.60
40257;DHT22;25977;45.462;9.210;2023-07-13T14:17:04;31.30;69.60
40257;DHT22;25977;45.462;9.210;2023-07-13T14:19:30;31.30;70.10
40257;DHT22;25977;45.462;9.210;2023-07-13T14:21:55;31.10;70.40
40257;DHT22;25977;45.462;9.210;2023-07-13T14:24:21;31.00;69.90
40257;DHT22;25977;45.462;9.210;2023-07-13T14:26:47;30.90;69.90
40257;DHT22;25977;45.462;9.210;2023-07-13T14:29:15;30.90;69.80
40257;DHT22;25977;45.462;9.210;2023-07-13T14:31:42;30.80;69.70
40257;DHT22;25977;45.462;9.210;2023-07-13T14:34:10;30.80;70.00
40257;DHT22;25977;45.462;9.210;2023-07-13T14:36:44;30.90;69.90
40257;DHT22;25977;45.462;9.210;2023-07-13T14:39:16;31.00;69.60
40257;DHT22;25977;45.462;9.210;2023-07-13T14:41:42;31.10;69.40
40257;DHT22;25977;45.462;9.210;2023-07-13T14:44:16;31.10;69.50
40257;DHT22;25977;45.462;9.210;2023-07-13T14:46:44;31.00;69.70
40257;DHT22;25977;45.462;9.210;2023-07-13T14:49:29;30.90;70.10
40257;DHT22;25977;45.462;9.210;2023-07-13T14:52:01;30.90;69.90
40257;DHT22;25977;45.462;9.210;2023-07-13T14:54:28;30.70;70.60
40257;DHT22;25977;45.462;9.210;2023-07-13T14:56:53;30.80;70.10
40257;DHT22;25977;45.462;9.210;2023-07-13T14:59:19;30.90;70.00
40257;DHT22;25977;45.462;9.210;2023-07-13T15:01:46;30.90;70.00
40257;DHT22;25977;45.462;9.210;2023-07-13T15:04:12;30.90;69.90
40257;DHT22;25977;45.462;9.210;2023-07-13T15:06:56;30.90;70.80
40257;DHT22;25977;45.462;9.210;2023-07-13T15:09:22;30.80;71.50
40257;DHT22;25977;45.462;9.210;2023-07-13T15:11:52;30.40;71.20
40257;DHT22;25977;45.462;9.210;2023-07-13T15:14:17;30.20;71.60
40257;DHT22;25977;45.462;9.210;2023-07-13T15:16:44;30.30;71.50
40257;DHT22;25977;45.462;9.210;2023-07-13T15:19:10;30.40;71.30
40257;DHT22;25977;45.462;9.210;2023-07-13T15:21:36;30.40;71.30
40257;DHT22;25977;45.462;9.210;2023-07-13T15:24:02;30.50;71.20
40257;DHT22;25977;45.462;9.210;2023-07-13T15:26:28;30.40;71.10
40257;DHT22;25977;45.462;9.210;2023-07-13T15:28:54;30.30;71.40
40257;DHT22;25977;45.462;9.210;2023-07-13T15:31:25;30.20;71.30
40257;DHT22;25977;45.462;9.210;2023-07-13T15:33:52;30.20;71.40
40257;DHT22;25977;45.462;9.210;2023-07-13T15:36:19;30.40;71.10
40257;DHT22;25977;45.462;9.210;2023-07-13T15:38:46;30.40;70.90
40257;DHT22;25977;45.462;9.210;2023-07-13T15:41:33;30.50;70.50
40257;DHT22;25977;45.462;9.210;2023-07-13T15:44:22;30.50;70.10
40257;DHT22;25977;45.462;9.210;2023-07-13T15:46:46;30.60;70.10
40257;DHT22;25977;45.462;9.210;2023-07-13T15:49:12;30.70;69.90
40257;DHT22;25977;45.462;9.210;2023-07-13T15:51:37;30.70;69.70
40257;DHT22;25977;45.462;9.210;2023-07-13T15:54:04;30.70;69.30
40257;DHT22;25977;45.462;9.210;2023-07-13T15:56:36;30.80;69.50
40257;DHT22;25977;45.462;9.210;2023-07-13T15:59:02;30.90;69.30
40257;DHT22;25977;45.462;9.210;2023-07-13T16:01:29;30.90;69.20
40257;DHT22;25977;45.462;9.210;2023-07-13T16:03:55;30.80;70.10
40257;DHT22;25977;45.462;9.210;2023-07-13T16:06:36;30.90;70.10
40257;DHT22;25977;45.462;9.210;2023-07-13T16:09:03;30.90;70.40
40257;DHT22;25977;45.462;9.210;2023-07-13T16:11:38;30.90;70.60
40257;DHT22;25977;45.462;9.210;2023-07-13T16:14:05;30.90;70.50
40257;DHT22;25977;45.462;9.210;2023-07-13T16:16:33;30.90;70.60
40257;DHT22;25977;45.462;9.210;2023-07-13T16:19:02;31.00;70.50
40257;DHT22;25977;45.462;9.210;2023-07-13T16:21:31;30.90;69.90
40257;DHT22;25977;45.462;9.210;2023-07-13T16:23:58;30.90;70.10
40257;DHT22;25977;45.462;9.210;2023-07-13T16:26:33;30.90;70.10
40257;DHT22;25977;45.462;9.210;2023-07-13T16:29:11;30.90;69.80
40257;DHT22;25977;45.462;9.210;2023-07-13T16:31:37;30.80;70.80
40257;DHT22;25977;45.462;9.210;2023-07-13T16:34:04;30.80;70.80